sensor_id;sensor_type;location;lat;lon;timestamp;P1;durP1;ratioP1;P2;durP2;ratioP2
14377;SDS011;7272;53.668;9.578;2022-12-07T00:01:40;10.07;;;9.13;;
14377;SDS011;7272;53.668;9.578;2022-12-07T00:04:43;8.73;;;7.93;;
14377;SDS011;7272;53.668;9.578;2022-12-07T00:07:45;9.97;;;8.97;;
14377;SDS011;7272;53.668;9.578;2022-12-07T00:10:49;8.67;;;7.73;;
14377;SDS011;7272;53.668;9.578;2022-12-07T00:13:51;9.70;;;7.90;;
14377;SDS011;7272;53.668;9.578;2022-12-07T00:16:54;9.63;;;8.60;;
14377;SDS011;7272;53.668;9.578;2022-12-07T00:19:56;8.80;;;7.93;;
14377;SDS011;7272;53.668;9.578;2022-12-07T00:22:58;8.60;;;7.80;;
14377;SDS011;7272;53.668;9.578;2022-12-07T00:26:06;9.03;;;8.23;;
14377;SDS011;7272;53.668;9.578;2022-12-07T00:29:09;9.23;;;7.13;;
14377;SDS011;7272;53.668;9.578;2022-12-07T00:32:14;8.80;;;7.90;;
14377;SDS011;7272;53.668;9.578;2022-12-07T00:35:16;8.23;;;7.43;;
14377;SDS011;7272;53.668;9.578;2022-12-07T00:38:18;7.67;;;6.97;;
14377;SDS011;7272;53.668;9.578;2022-12-07T00:41:22;7.47;;;6.77;;
14377;SDS011;7272;53.668;9.578;2022-12-07T00:44:25;7.50;;;6.70;;
14377;SDS011;7272;53.668;9.578;2022-12-07T00:47:27;8.43;;;7.60;;
14377;SDS011;7272;53.668;9.578;2022-12-07T00:50:29;7.33;;;6.60;;
14377;SDS011;7272;53.668;9.578;2022-12-07T00:53:33;6.57;;;5.93;;
14377;SDS011;7272;53.668;9.578;2022-12-07T00:56:37;8.23;;;6.30;;
14377;SDS011;7272;53.668;9.578;2022-12-07T00:59:39;6.87;;;5.93;;
14377;SDS011;7272;53.668;9.578;2022-12-07T01:02:41;8.33;;;5.40;;
14377;SDS011;7272;53.668;9.578;2022-12-07T01:05:50;9.60;;;6.17;;
14377;SDS011;7272;53.668;9.578;2022-12-07T01:08:53;13.50;;;6.83;;
14377;SDS011;7272;53.668;9.578;2022-12-07T01:11:57;12.30;;;5.53;;
14377;SDS011;7272;53.668;9.578;2022-12-07T01:14:59;9.07;;;5.40;;
14377;SDS011;7272;53.668;9.578;2022-12-07T01:18:01;8.50;;;5.47;;
14377;SDS011;7272;53.668;9.578;2022-12-07T01:21:04;7.13;;;5.17;;
14377;SDS011;7272;53.668;9.578;2022-12-07T01:24:09;7.13;;;4.80;;
14377;SDS011;7272;53.668;9.578;2022-12-07T01:27:14;5.87;;;4.50;;
14377;SDS011;7272;53.668;9.578;2022-12-07T01:30:16;5.60;;;5.10;;
14377;SDS011;7272;53.668;9.578;2022-12-07T01:33:18;5.57;;;5.07;;
14377;SDS011;7272;53.668;9.578;2022-12-07T01:36:21;7.30;;;5.13;;
14377;SDS011;7272;53.668;9.578;2022-12-07T01:39:25;6.90;;;4.80;;
14377;SDS011;7272;53.668;9.578;2022-12-07T01:42:28;6.37;;;5.13;;
14377;SDS011;7272;53.668;9.578;2022-12-07T01:45:36;7.47;;;4.97;;
14377;SDS011;7272;53.668;9.578;2022-12-07T01:48:41;8.27;;;5.33;;
14377;SDS011;7272;53.668;9.578;2022-12-07T01:51:44;5.77;;;4.50;;
14377;SDS011;7272;53.668;9.578;2022-12-07T01:54:49;7.27;;;4.57;;
14377;SDS011;7272;53.668;9.578;2022-12-07T01:57:55;3.77;;;3.20;;
14377;SDS011;7272;53.668;9.578;2022-12-07T02:00:58;4.17;;;3.20;;
14377;SDS011;7272;53.668;9.578;2022-12-07T02:04:00;4.80;;;3.43;;
14377;SDS011;7272;53.668;9.578;2022-12-07T02:07:03;3.97;;;3.30;;
14377;SDS011;7272;53.668;9.578;2022-12-07T02:10:13;3.57;;;2.90;;
14377;SDS011;7272;53.668;9.578;2022-12-07T02:13:19;3.43;;;2.87;;
14377;SDS011;7272;53.668;9.578;2022-12-07T02:16:25;4.53;;;2.50;;
14377;SDS011;7272;53.668;9.578;2022-12-07T02:19:50;5.67;;;2.70;;
14377;SDS011;7272;53.668;9.578;2022-12-07T02:23:19;4.30;;;2.37;;
14377;SDS011;7272;53.668;9.578;2022-12-07T02:26:58;4.70;;;2.30;;
14377;SDS011;7272;53.668;9.578;2022-12-07T02:30:22;4.40;;;2.20;;
14377;SDS011;7272;53.668;9.578;2022-12-07T02:33:29;3.37;;;2.00;;
14377;SDS011;7272;53.668;9.578;2022-12-07T02:36:38;3.90;;;2.10;;
14377;SDS011;7272;53.668;9.578;2022-12-07T02:39:42;3.53;;;2.30;;
14377;SDS011;7272;53.668;9.578;2022-12-07T02:42:50;4.03;;;2.10;;
14377;SDS011;7272;53.668;9.578;2022-12-07T02:45:59;2.43;;;1.93;;
14377;SDS011;7272;53.668;9.578;2022-12-07T02:49:04;2.57;;;1.70;;
14377;SDS011;7272;53.668;9.578;2022-12-07T02:52:07;2.70;;;1.80;;
14377;SDS011;7272;53.668;9.578;2022-12-07T02:55:09;3.60;;;1.87;;
14377;SDS011;7272;53.668;9.578;2022-12-07T02:58:15;3.43;;;2.10;;
14377;SDS011;7272;53.668;9.578;2022-12-07T03:01:33;4.33;;;1.93;;
14377;SDS011;7272;53.668;9.578;2022-12-07T03:04:42;4.20;;;1.90;;
14377;SDS011;7272;53.668;9.578;2022-12-07T03:07:54;4.47;;;2.30;;
14377;SDS011;7272;53.668;9.578;2022-12-07T03:11:04;3.53;;;1.63;;
14377;SDS011;7272;53.668;9.578;2022-12-07T03:14:09;3.70;;;2.10;;
14377;SDS011;7272;53.668;9.578;2022-12-07T03:17:18;2.93;;;1.80;;
14377;SDS011;7272;53.668;9.578;2022-12-07T03:20:25;6.80;;;2.03;;
14377;SDS011;7272;53.668;9.578;2022-12-07T03:23:30;3.03;;;2.20;;
14377;SDS011;7272;53.668;9.578;2022-12-07T03:26:36;5.13;;;2.30;;
14377;SDS011;7272;53.668;9.578;2022-12-07T03:29:45;3.73;;;1.90;;
14377;SDS011;7272;53.668;9.578;2022-12-07T03:32:51;2.13;;;1.90;;
14377;SDS011;7272;53.668;9.578;2022-12-07T03:36:01;3.53;;;2.07;;
14377;SDS011;7272;53.668;9.578;2022-12-07T03:39:09;2.20;;;2.00;;
14377;SDS011;7272;53.668;9.578;2022-12-07T03:42:18;2.47;;;1.80;;
14377;SDS011;7272;53.668;9.578;2022-12-07T03:45:20;3.73;;;2.00;;
14377;SDS011;7272;53.668;9.578;2022-12-07T03:48:31;7.80;;;3.10;;
14377;SDS011;7272;53.668;9.578;2022-12-07T03:51:38;2.83;;;2.00;;
14377;SDS011;7272;53.668;9.578;2022-12-07T03:54:47;3.83;;;2.67;;
14377;SDS011;7272;53.668;9.578;2022-12-07T03:57:55;3.50;;;2.23;;
14377;SDS011;7272;53.668;9.578;2022-12-07T04:01:01;3.37;;;2.10;;
14377;SDS011;7272;53.668;9.578;2022-12-07T04:04:04;2.00;;;1.90;;
14377;SDS011;7272;53.668;9.578;2022-12-07T04:07:06;5.10;;;2.30;;
14377;SDS011;7272;53.668;9.578;2022-12-07T04:10:09;2.97;;;2.10;;
14377;SDS011;7272;53.668;9.578;2022-12-07T04:13:11;2.50;;;2.10;;
14377;SDS011;7272;53.668;9.578;2022-12-07T04:16:13;3.77;;;2.03;;
14377;SDS011;7272;53.668;9.578;2022-12-07T04:19:17;4.40;;;2.10;;
14377;SDS011;7272;53.668;9.578;2022-12-07T04:22:21;4.57;;;2.57;;
14377;SDS011;7272;53.668;9.578;2022-12-07T04:25:23;2.83;;;2.30;;
14377;SDS011;7272;53.668;9.578;2022-12-07T04:28:25;2.37;;;2.17;;
14377;SDS011;7272;53.668;9.578;2022-12-07T04:31:27;3.10;;;2.13;;
14377;SDS011;7272;53.668;9.578;2022-12-07T04:34:30;5.60;;;2.30;;
14377;SDS011;7272;53.668;9.578;2022-12-07T04:37:33;2.90;;;2.60;;
14377;SDS011;7272;53.668;9.578;2022-12-07T04:40:36;2.83;;;2.20;;
14377;SDS011;7272;53.668;9.578;2022-12-07T04:43:38;2.90;;;2.60;;
14377;SDS011;7272;53.668;9.578;2022-12-07T04:46:40;3.57;;;2.40;;
14377;SDS011;7272;53.668;9.578;2022-12-07T04:49:44;3.03;;;2.10;;
14377;SDS011;7272;53.668;9.578;2022-12-07T04:53:04;2.20;;;2.10;;
14377;SDS011;7272;53.668;9.578;2022-12-07T04:56:07;2.50;;;2.30;;
14377;SDS011;7272;53.668;9.578;2022-12-07T04:59:09;2.60;;;2.40;;
14377;SDS011;7272;53.668;9.578;2022-12-07T05:02:12;3.10;;;2.50;;
14377;SDS011;7272;53.668;9.578;2022-12-07T05:05:15;3.23;;;2.33;;
14377;SDS011;7272;53.668;9.578;2022-12-07T05:08:17;2.20;;;2.10;;
14377;SDS011;7272;53.668;9.578;2022-12-07T05:11:19;2.20;;;2.00;;
14377;SDS011;7272;53.668;9.578;2022-12-07T05:14:39;2.53;;;2.33;;
14377;SDS011;7272;53.668;9.578;2022-12-07T05:17:41;2.27;;;2.07;;
14377;SDS011;7272;53.668;9.578;2022-12-07T05:20:45;2.10;;;2.00;;
14377;SDS011;7272;53.668;9.578;2022-12-07T05:23:47;2.33;;;2.13;;
14377;SDS011;7272;53.668;9.578;2022-12-07T05:26:49;2.43;;;2.23;;
14377;SDS011;7272;53.668;9.578;2022-12-07T05:29:51;2.73;;;2.13;;
14377;SDS011;7272;53.668;9.578;2022-12-07T05:32:53;2.60;;;2.40;;
14377;SDS011;7272;53.668;9.578;2022-12-07T05:35:57;3.80;;;2.63;;
14377;SDS011;7272;53.668;9.578;2022-12-07T05:38:59;2.67;;;2.40;;
14377;SDS011;7272;53.668;9.578;2022-12-07T05:42:01;3.43;;;2.40;;
14377;SDS011;7272;53.668;9.578;2022-12-07T05:45:15;2.90;;;2.10;;
14377;SDS011;7272;53.668;9.578;2022-12-07T05:48:17;2.30;;;2.10;;
14377;SDS011;7272;53.668;9.578;2022-12-07T05:51:21;2.87;;;2.50;;
14377;SDS011;7272;53.668;9.578;2022-12-07T05:54:23;4.23;;;2.57;;
14377;SDS011;7272;53.668;9.578;2022-12-07T05:57:25;3.50;;;2.50;;
14377;SDS011;7272;53.668;9.578;2022-12-07T06:00:27;2.30;;;2.10;;
14377;SDS011;7272;53.668;9.578;2022-12-07T06:03:29;2.33;;;2.13;;
14377;SDS011;7272;53.668;9.578;2022-12-07T06:06:32;2.30;;;2.10;;
14377;SDS011;7272;53.668;9.578;2022-12-07T06:09:34;3.77;;;2.40;;
14377;SDS011;7272;53.668;9.578;2022-12-07T06:12:36;3.53;;;2.10;;
14377;SDS011;7272;53.668;9.578;2022-12-07T06:15:54;2.87;;;2.27;;
14377;SDS011;7272;53.668;9.578;2022-12-07T06:18:56;3.77;;;2.20;;
14377;SDS011;7272;53.668;9.578;2022-12-07T06:22:00;4.10;;;2.17;;
14377;SDS011;7272;53.668;9.578;2022-12-07T06:25:03;3.10;;;2.10;;
14377;SDS011;7272;53.668;9.578;2022-12-07T06:28:05;3.67;;;1.87;;
14377;SDS011;7272;53.668;9.578;2022-12-07T06:31:07;2.30;;;2.10;;
14377;SDS011;7272;53.668;9.578;2022-12-07T06:34:11;1.77;;;1.50;;
14377;SDS011;7272;53.668;9.578;2022-12-07T06:37:15;4.70;;;2.20;;
14377;SDS011;7272;53.668;9.578;2022-12-07T06:40:17;1.93;;;1.80;;
14377;SDS011;7272;53.668;9.578;2022-12-07T06:43:19;2.63;;;1.50;;
14377;SDS011;7272;53.668;9.578;2022-12-07T06:46:21;1.83;;;1.63;;
14377;SDS011;7272;53.668;9.578;2022-12-07T06:49:24;1.80;;;1.70;;
14377;SDS011;7272;53.668;9.578;2022-12-07T06:52:28;2.30;;;1.40;;
14377;SDS011;7272;53.668;9.578;2022-12-07T06:55:30;2.43;;;1.60;;
14377;SDS011;7272;53.668;9.578;2022-12-07T06:58:32;1.77;;;1.50;;
14377;SDS011;7272;53.668;9.578;2022-12-07T07:01:34;2.23;;;1.60;;
14377;SDS011;7272;53.668;9.578;2022-12-07T07:04:37;1.40;;;1.30;;
14377;SDS011;7272;53.668;9.578;2022-12-07T07:07:40;3.37;;;1.60;;
14377;SDS011;7272;53.668;9.578;2022-12-07T07:10:42;4.40;;;1.50;;
14377;SDS011;7272;53.668;9.578;2022-12-07T07:13:44;3.17;;;1.67;;
14377;SDS011;7272;53.668;9.578;2022-12-07T07:16:47;1.50;;;1.40;;
14377;SDS011;7272;53.668;9.578;2022-12-07T07:19:49;2.77;;;1.60;;
14377;SDS011;7272;53.668;9.578;2022-12-07T07:22:54;3.07;;;1.60;;
14377;SDS011;7272;53.668;9.578;2022-12-07T07:25:56;1.97;;;1.50;;
14377;SDS011;7272;53.668;9.578;2022-12-07T07:28:58;3.13;;;1.60;;
14377;SDS011;7272;53.668;9.578;2022-12-07T07:32:00;2.70;;;1.50;;
14377;SDS011;7272;53.668;9.578;2022-12-07T07:35:03;2.13;;;1.67;;
14377;SDS011;7272;53.668;9.578;2022-12-07T07:38:07;2.30;;;1.60;;
14377;SDS011;7272;53.668;9.578;2022-12-07T07:41:09;2.33;;;1.50;;
14377;SDS011;7272;53.668;9.578;2022-12-07T07:44:11;2.10;;;1.43;;
14377;SDS011;7272;53.668;9.578;2022-12-07T07:47:14;1.63;;;1.33;;
14377;SDS011;7272;53.668;9.578;2022-12-07T07:50:16;2.87;;;1.40;;
14377;SDS011;7272;53.668;9.578;2022-12-07T07:53:20;3.40;;;1.80;;
14377;SDS011;7272;53.668;9.578;2022-12-07T07:56:22;1.77;;;1.60;;
14377;SDS011;7272;53.668;9.578;2022-12-07T07:59:24;3.60;;;1.80;;
14377;SDS011;7272;53.668;9.578;2022-12-07T08:02:28;2.70;;;1.40;;
14377;SDS011;7272;53.668;9.578;2022-12-07T08:05:30;2.97;;;1.53;;
14377;SDS011;7272;53.668;9.578;2022-12-07T08:08:34;3.70;;;1.50;;
14377;SDS011;7272;53.668;9.578;2022-12-07T08:11:36;1.87;;;1.50;;
14377;SDS011;7272;53.668;9.578;2022-12-07T08:14:38;4.10;;;1.73;;
14377;SDS011;7272;53.668;9.578;2022-12-07T08:17:40;2.97;;;1.60;;
14377;SDS011;7272;53.668;9.578;2022-12-07T08:20:42;1.77;;;1.63;;
14377;SDS011;7272;53.668;9.578;2022-12-07T08:23:45;3.80;;;1.70;;
14377;SDS011;7272;53.668;9.578;2022-12-07T08:26:47;2.17;;;1.50;;
14377;SDS011;7272;53.668;9.578;2022-12-07T08:29:50;2.73;;;1.80;;
14377;SDS011;7272;53.668;9.578;2022-12-07T08:32:52;2.33;;;1.43;;
14377;SDS011;7272;53.668;9.578;2022-12-07T08:35:54;2.80;;;1.60;;
14377;SDS011;7272;53.668;9.578;2022-12-07T08:38:57;4.00;;;1.70;;
14377;SDS011;7272;53.668;9.578;2022-12-07T08:41:59;3.97;;;1.80;;
14377;SDS011;7272;53.668;9.578;2022-12-07T08:45:01;1.60;;;1.33;;
14377;SDS011;7272;53.668;9.578;2022-12-07T08:48:04;5.43;;;1.70;;
14377;SDS011;7272;53.668;9.578;2022-12-07T08:51:10;2.83;;;1.60;;
14377;SDS011;7272;53.668;9.578;2022-12-07T08:54:14;4.60;;;1.83;;
14377;SDS011;7272;53.668;9.578;2022-12-07T08:57:17;5.57;;;2.47;;
14377;SDS011;7272;53.668;9.578;2022-12-07T09:00:19;4.07;;;1.90;;
14377;SDS011;7272;53.668;9.578;2022-12-07T09:03:22;3.47;;;1.77;;
14377;SDS011;7272;53.668;9.578;2022-12-07T09:06:24;3.30;;;1.60;;
14377;SDS011;7272;53.668;9.578;2022-12-07T09:09:28;3.07;;;1.93;;
14377;SDS011;7272;53.668;9.578;2022-12-07T09:12:29;4.20;;;1.90;;
14377;SDS011;7272;53.668;9.578;2022-12-07T09:15:31;3.57;;;1.80;;
14377;SDS011;7272;53.668;9.578;2022-12-07T09:18:33;2.47;;;1.50;;
14377;SDS011;7272;53.668;9.578;2022-12-07T09:21:35;4.43;;;1.93;;
14377;SDS011;7272;53.668;9.578;2022-12-07T09:24:38;1.43;;;1.20;;
14377;SDS011;7272;53.668;9.578;2022-12-07T09:27:40;2.90;;;1.60;;
14377;SDS011;7272;53.668;9.578;2022-12-07T09:30:44;3.20;;;1.67;;
14377;SDS011;7272;53.668;9.578;2022-12-07T09:33:52;3.73;;;1.80;;
14377;SDS011;7272;53.668;9.578;2022-12-07T09:36:55;1.80;;;1.60;;
14377;SDS011;7272;53.668;9.578;2022-12-07T09:39:58;2.20;;;1.43;;
14377;SDS011;7272;53.668;9.578;2022-12-07T09:43:00;2.13;;;1.30;;
14377;SDS011;7272;53.668;9.578;2022-12-07T09:46:02;3.30;;;1.57;;
14377;SDS011;7272;53.668;9.578;2022-12-07T09:49:05;2.77;;;1.60;;
14377;SDS011;7272;53.668;9.578;2022-12-07T09:52:16;2.93;;;1.67;;
14377;SDS011;7272;53.668;9.578;2022-12-07T09:55:22;3.57;;;1.53;;
14377;SDS011;7272;53.668;9.578;2022-12-07T09:58:28;4.47;;;1.60;;
14377;SDS011;7272;53.668;9.578;2022-12-07T10:01:31;3.97;;;1.70;;
14377;SDS011;7272;53.668;9.578;2022-12-07T10:04:34;3.27;;;1.40;;
14377;SDS011;7272;53.668;9.578;2022-12-07T10:07:39;1.80;;;1.63;;
14377;SDS011;7272;53.668;9.578;2022-12-07T10:10:43;4.50;;;1.67;;
14377;SDS011;7272;53.668;9.578;2022-12-07T10:13:46;6.53;;;1.47;;
14377;SDS011;7272;53.668;9.578;2022-12-07T10:16:49;4.50;;;1.80;;
14377;SDS011;7272;53.668;9.578;2022-12-07T10:19:52;2.53;;;1.53;;
14377;SDS011;7272;53.668;9.578;2022-12-07T10:23:14;1.87;;;1.40;;
14377;SDS011;7272;53.668;9.578;2022-12-07T10:26:25;3.53;;;1.67;;
14377;SDS011;7272;53.668;9.578;2022-12-07T10:29:30;3.60;;;1.47;;
14377;SDS011;7272;53.668;9.578;2022-12-07T10:32:34;3.63;;;1.70;;
14377;SDS011;7272;53.668;9.578;2022-12-07T10:35:38;2.50;;;1.53;;
14377;SDS011;7272;53.668;9.578;2022-12-07T10:38:45;3.47;;;1.30;;
14377;SDS011;7272;53.668;9.578;2022-12-07T10:41:54;3.53;;;1.60;;
14377;SDS011;7272;53.668;9.578;2022-12-07T10:45:07;4.23;;;1.60;;
14377;SDS011;7272;53.668;9.578;2022-12-07T10:48:16;3.20;;;1.50;;
14377;SDS011;7272;53.668;9.578;2022-12-07T10:51:26;4.03;;;1.67;;
14377;SDS011;7272;53.668;9.578;2022-12-07T10:54:34;3.13;;;1.40;;
14377;SDS011;7272;53.668;9.578;2022-12-07T10:57:50;5.30;;;2.00;;
14377;SDS011;7272;53.668;9.578;2022-12-07T11:01:08;2.27;;;1.37;;
14377;SDS011;7272;53.668;9.578;2022-12-07T11:04:17;2.00;;;1.20;;
14377;SDS011;7272;53.668;9.578;2022-12-07T11:07:27;3.50;;;1.60;;
14377;SDS011;7272;53.668;9.578;2022-12-07T11:10:41;3.93;;;1.57;;
14377;SDS011;7272;53.668;9.578;2022-12-07T11:13:55;10.13;;;1.70;;
14377;SDS011;7272;53.668;9.578;2022-12-07T11:17:04;3.30;;;1.50;;
14377;SDS011;7272;53.668;9.578;2022-12-07T11:23:44;4.60;;;1.70;;
14377;SDS011;7272;53.668;9.578;2022-12-07T11:26:54;6.23;;;1.80;;
14377;SDS011;7272;53.668;9.578;2022-12-07T11:30:13;4.17;;;1.60;;
14377;SDS011;7272;53.668;9.578;2022-12-07T11:33:19;3.30;;;1.53;;
14377;SDS011;7272;53.668;9.578;2022-12-07T11:36:31;3.53;;;1.60;;
14377;SDS011;7272;53.668;9.578;2022-12-07T11:39:39;5.63;;;1.77;;
14377;SDS011;7272;53.668;9.578;2022-12-07T11:42:49;6.37;;;1.80;;
14377;SDS011;7272;53.668;9.578;2022-12-07T11:45:56;3.03;;;1.60;;
14377;SDS011;7272;53.668;9.578;2022-12-07T11:49:01;4.27;;;1.77;;
14377;SDS011;7272;53.668;9.578;2022-12-07T11:52:12;3.17;;;2.23;;
14377;SDS011;7272;53.668;9.578;2022-12-07T11:55:24;2.93;;;1.50;;
14377;SDS011;7272;53.668;9.578;2022-12-07T11:58:44;5.80;;;1.77;;
14377;SDS011;7272;53.668;9.578;2022-12-07T12:01:53;5.00;;;1.73;;
14377;SDS011;7272;53.668;9.578;2022-12-07T12:05:01;5.37;;;1.93;;
14377;SDS011;7272;53.668;9.578;2022-12-07T12:08:13;5.43;;;1.90;;
14377;SDS011;7272;53.668;9.578;2022-12-07T12:11:21;3.83;;;1.70;;
14377;SDS011;7272;53.668;9.578;2022-12-07T12:14:39;3.63;;;1.70;;
14377;SDS011;7272;53.668;9.578;2022-12-07T12:17:52;5.07;;;1.80;;
14377;SDS011;7272;53.668;9.578;2022-12-07T12:21:06;4.83;;;2.07;;
14377;SDS011;7272;53.668;9.578;2022-12-07T12:24:12;4.60;;;1.70;;
14377;SDS011;7272;53.668;9.578;2022-12-07T12:27:20;4.13;;;1.77;;
14377;SDS011;7272;53.668;9.578;2022-12-07T12:30:30;6.77;;;1.70;;
14377;SDS011;7272;53.668;9.578;2022-12-07T12:33:36;3.17;;;1.47;;
14377;SDS011;7272;53.668;9.578;2022-12-07T12:36:44;5.10;;;1.63;;
14377;SDS011;7272;53.668;9.578;2022-12-07T12:43:40;5.50;;;1.80;;
14377;SDS011;7272;53.668;9.578;2022-12-07T12:46:50;4.13;;;1.60;;
14377;SDS011;7272;53.668;9.578;2022-12-07T12:50:15;4.83;;;2.27;;
14377;SDS011;7272;53.668;9.578;2022-12-07T12:53:21;3.47;;;2.50;;
14377;SDS011;7272;53.668;9.578;2022-12-07T12:56:30;7.03;;;2.00;;
14377;SDS011;7272;53.668;9.578;2022-12-07T12:59:40;4.97;;;1.90;;
14377;SDS011;7272;53.668;9.578;2022-12-07T13:02:47;5.70;;;1.50;;
14377;SDS011;7272;53.668;9.578;2022-12-07T13:06:04;3.63;;;1.30;;
14377;SDS011;7272;53.668;9.578;2022-12-07T13:09:20;2.43;;;1.40;;
14377;SDS011;7272;53.668;9.578;2022-12-07T13:12:24;2.47;;;1.00;;
14377;SDS011;7272;53.668;9.578;2022-12-07T13:15:34;1.93;;;1.30;;
14377;SDS011;7272;53.668;9.578;2022-12-07T13:18:38;2.30;;;1.27;;
14377;SDS011;7272;53.668;9.578;2022-12-07T13:21:42;4.97;;;1.40;;
14377;SDS011;7272;53.668;9.578;2022-12-07T13:24:44;4.37;;;1.27;;
14377;SDS011;7272;53.668;9.578;2022-12-07T13:27:48;3.93;;;1.30;;
14377;SDS011;7272;53.668;9.578;2022-12-07T13:31:00;4.67;;;1.80;;
14377;SDS011;7272;53.668;9.578;2022-12-07T13:34:28;1.93;;;1.10;;
14377;SDS011;7272;53.668;9.578;2022-12-07T13:37:34;4.20;;;1.50;;
14377;SDS011;7272;53.668;9.578;2022-12-07T13:40:36;2.77;;;1.20;;
14377;SDS011;7272;53.668;9.578;2022-12-07T13:43:45;4.57;;;1.57;;
14377;SDS011;7272;53.668;9.578;2022-12-07T13:46:52;2.53;;;1.43;;
14377;SDS011;7272;53.668;9.578;2022-12-07T13:49:58;2.30;;;1.30;;
14377;SDS011;7272;53.668;9.578;2022-12-07T13:53:07;2.57;;;1.23;;
14377;SDS011;7272;53.668;9.578;2022-12-07T13:56:14;3.80;;;1.53;;
14377;SDS011;7272;53.668;9.578;2022-12-07T13:59:16;2.43;;;1.63;;
14377;SDS011;7272;53.668;9.578;2022-12-07T14:02:21;2.07;;;1.10;;
14377;SDS011;7272;53.668;9.578;2022-12-07T14:05:26;2.83;;;1.30;;
14377;SDS011;7272;53.668;9.578;2022-12-07T14:08:30;2.33;;;1.10;;
14377;SDS011;7272;53.668;9.578;2022-12-07T14:11:33;2.10;;;1.10;;
14377;SDS011;7272;53.668;9.578;2022-12-07T14:14:35;3.37;;;1.00;;
14377;SDS011;7272;53.668;9.578;2022-12-07T14:17:38;3.33;;;1.30;;
14377;SDS011;7272;53.668;9.578;2022-12-07T14:20:51;1.43;;;1.03;;
14377;SDS011;7272;53.668;9.578;2022-12-07T14:24:10;3.07;;;1.00;;
14377;SDS011;7272;53.668;9.578;2022-12-07T14:27:18;2.70;;;1.00;;
14377;SDS011;7272;53.668;9.578;2022-12-07T14:30:21;4.70;;;1.13;;
14377;SDS011;7272;53.668;9.578;2022-12-07T14:33:24;2.83;;;1.20;;
14377;SDS011;7272;53.668;9.578;2022-12-07T14:36:27;2.07;;;1.00;;
14377;SDS011;7272;53.668;9.578;2022-12-07T14:39:30;2.57;;;1.17;;
14377;SDS011;7272;53.668;9.578;2022-12-07T14:42:32;3.10;;;1.13;;
14377;SDS011;7272;53.668;9.578;2022-12-07T14:45:35;4.07;;;1.20;;
14377;SDS011;7272;53.668;9.578;2022-12-07T14:48:37;1.90;;;1.00;;
14377;SDS011;7272;53.668;9.578;2022-12-07T14:51:39;2.37;;;0.90;;
14377;SDS011;7272;53.668;9.578;2022-12-07T14:54:44;1.60;;;0.80;;
14377;SDS011;7272;53.668;9.578;2022-12-07T14:57:46;1.10;;;0.97;;
14377;SDS011;7272;53.668;9.578;2022-12-07T15:00:48;1.90;;;1.03;;
14377;SDS011;7272;53.668;9.578;2022-12-07T15:03:51;3.57;;;1.10;;
14377;SDS011;7272;53.668;9.578;2022-12-07T15:06:56;4.00;;;1.30;;
14377;SDS011;7272;53.668;9.578;2022-12-07T15:10:01;3.70;;;1.23;;
14377;SDS011;7272;53.668;9.578;2022-12-07T15:13:03;2.40;;;1.27;;
14377;SDS011;7272;53.668;9.578;2022-12-07T15:16:19;2.63;;;1.10;;
14377;SDS011;7272;53.668;9.578;2022-12-07T15:19:24;2.40;;;1.10;;
14377;SDS011;7272;53.668;9.578;2022-12-07T15:22:27;2.50;;;1.10;;
14377;SDS011;7272;53.668;9.578;2022-12-07T15:25:31;2.97;;;1.13;;
14377;SDS011;7272;53.668;9.578;2022-12-07T15:28:33;3.77;;;1.20;;
14377;SDS011;7272;53.668;9.578;2022-12-07T15:31:35;0.93;;;0.90;;
14377;SDS011;7272;53.668;9.578;2022-12-07T15:34:37;1.57;;;0.90;;
14377;SDS011;7272;53.668;9.578;2022-12-07T15:37:39;1.77;;;0.90;;
14377;SDS011;7272;53.668;9.578;2022-12-07T15:40:43;1.10;;;1.00;;
14377;SDS011;7272;53.668;9.578;2022-12-07T15:43:47;1.83;;;1.30;;
14377;SDS011;7272;53.668;9.578;2022-12-07T15:47:07;1.13;;;0.97;;
14377;SDS011;7272;53.668;9.578;2022-12-07T15:50:09;2.40;;;1.13;;
14377;SDS011;7272;53.668;9.578;2022-12-07T15:53:13;1.03;;;0.90;;
14377;SDS011;7272;53.668;9.578;2022-12-07T15:56:16;2.50;;;1.10;;
14377;SDS011;7272;53.668;9.578;2022-12-07T15:59:18;1.57;;;1.00;;
14377;SDS011;7272;53.668;9.578;2022-12-07T16:02:20;1.43;;;1.30;;
14377;SDS011;7272;53.668;9.578;2022-12-07T16:05:23;3.87;;;2.23;;
14377;SDS011;7272;53.668;9.578;2022-12-07T16:08:25;2.13;;;1.93;;
14377;SDS011;7272;53.668;9.578;2022-12-07T16:11:28;2.17;;;1.77;;
14377;SDS011;7272;53.668;9.578;2022-12-07T16:14:30;2.97;;;1.40;;
14377;SDS011;7272;53.668;9.578;2022-12-07T16:17:33;2.23;;;1.10;;
14377;SDS011;7272;53.668;9.578;2022-12-07T16:20:35;2.93;;;1.40;;
14377;SDS011;7272;53.668;9.578;2022-12-07T16:23:37;4.13;;;1.73;;
14377;SDS011;7272;53.668;9.578;2022-12-07T16:26:40;2.47;;;1.83;;
14377;SDS011;7272;53.668;9.578;2022-12-07T16:29:42;3.80;;;1.20;;
14377;SDS011;7272;53.668;9.578;2022-12-07T16:32:44;1.80;;;1.17;;
14377;SDS011;7272;53.668;9.578;2022-12-07T16:35:46;1.33;;;1.00;;
14377;SDS011;7272;53.668;9.578;2022-12-07T16:38:48;1.83;;;1.40;;
14377;SDS011;7272;53.668;9.578;2022-12-07T16:41:51;1.97;;;1.20;;
14377;SDS011;7272;53.668;9.578;2022-12-07T16:44:53;3.77;;;1.40;;
14377;SDS011;7272;53.668;9.578;2022-12-07T16:47:55;2.63;;;1.50;;
14377;SDS011;7272;53.668;9.578;2022-12-07T16:50:58;2.63;;;1.47;;
14377;SDS011;7272;53.668;9.578;2022-12-07T16:54:04;2.17;;;1.50;;
14377;SDS011;7272;53.668;9.578;2022-12-07T16:57:07;3.07;;;1.20;;
14377;SDS011;7272;53.668;9.578;2022-12-07T17:00:10;1.47;;;1.37;;
14377;SDS011;7272;53.668;9.578;2022-12-07T17:03:12;1.83;;;1.30;;
14377;SDS011;7272;53.668;9.578;2022-12-07T17:06:15;3.57;;;1.10;;
14377;SDS011;7272;53.668;9.578;2022-12-07T17:09:18;1.97;;;1.30;;
14377;SDS011;7272;53.668;9.578;2022-12-07T17:12:21;1.30;;;1.00;;
14377;SDS011;7272;53.668;9.578;2022-12-07T17:15:23;1.50;;;1.30;;
14377;SDS011;7272;53.668;9.578;2022-12-07T17:18:26;2.40;;;1.20;;
14377;SDS011;7272;53.668;9.578;2022-12-07T17:21:32;1.57;;;1.10;;
14377;SDS011;7272;53.668;9.578;2022-12-07T17:24:34;0.93;;;0.90;;
14377;SDS011;7272;53.668;9.578;2022-12-07T17:27:37;1.00;;;1.00;;
14377;SDS011;7272;53.668;9.578;2022-12-07T17:30:39;1.13;;;1.10;;
14377;SDS011;7272;53.668;9.578;2022-12-07T17:33:41;1.17;;;1.17;;
14377;SDS011;7272;53.668;9.578;2022-12-07T17:36:43;1.20;;;1.10;;
14377;SDS011;7272;53.668;9.578;2022-12-07T17:39:47;1.70;;;1.03;;
14377;SDS011;7272;53.668;9.578;2022-12-07T17:42:50;1.97;;;1.10;;
14377;SDS011;7272;53.668;9.578;2022-12-07T17:45:52;1.23;;;1.13;;
14377;SDS011;7272;53.668;9.578;2022-12-07T17:48:55;2.47;;;1.50;;
14377;SDS011;7272;53.668;9.578;2022-12-07T17:51:57;2.60;;;1.50;;
14377;SDS011;7272;53.668;9.578;2022-12-07T17:55:17;3.33;;;2.00;;
14377;SDS011;7272;53.668;9.578;2022-12-07T17:58:21;2.37;;;2.10;;
14377;SDS011;7272;53.668;9.578;2022-12-07T18:01:23;3.57;;;3.20;;
14377;SDS011;7272;53.668;9.578;2022-12-07T18:04:25;3.30;;;3.00;;
14377;SDS011;7272;53.668;9.578;2022-12-07T18:07:27;4.27;;;3.53;;
14377;SDS011;7272;53.668;9.578;2022-12-07T18:10:29;5.20;;;3.93;;
14377;SDS011;7272;53.668;9.578;2022-12-07T18:13:33;5.47;;;4.67;;
14377;SDS011;7272;53.668;9.578;2022-12-07T18:16:38;6.70;;;5.03;;
14377;SDS011;7272;53.668;9.578;2022-12-07T18:19:40;5.40;;;4.03;;
14377;SDS011;7272;53.668;9.578;2022-12-07T18:22:42;3.47;;;2.90;;
14377;SDS011;7272;53.668;9.578;2022-12-07T18:25:45;3.27;;;2.17;;
14377;SDS011;7272;53.668;9.578;2022-12-07T18:28:49;3.20;;;1.83;;
14377;SDS011;7272;53.668;9.578;2022-12-07T18:31:53;2.50;;;1.97;;
14377;SDS011;7272;53.668;9.578;2022-12-07T18:34:54;4.50;;;1.90;;
14377;SDS011;7272;53.668;9.578;2022-12-07T18:37:57;1.93;;;1.83;;
14377;SDS011;7272;53.668;9.578;2022-12-07T18:40:59;3.90;;;2.00;;
14377;SDS011;7272;53.668;9.578;2022-12-07T18:44:03;3.30;;;1.77;;
14377;SDS011;7272;53.668;9.578;2022-12-07T18:47:06;2.17;;;1.60;;
14377;SDS011;7272;53.668;9.578;2022-12-07T18:50:08;5.10;;;3.20;;
14377;SDS011;7272;53.668;9.578;2022-12-07T18:53:11;4.10;;;2.77;;
14377;SDS011;7272;53.668;9.578;2022-12-07T18:56:13;3.37;;;2.00;;
14377;SDS011;7272;53.668;9.578;2022-12-07T18:59:18;3.67;;;2.20;;